createdAt,value
2019-03-04T00:00:22.005Z,12.72
2019-03-04T00:01:22.025Z,12.78
2019-03-04T00:02:22.031Z,12.85
2019-03-04T00:03:22.353Z,12.85
2019-03-04T00:04:22.063Z,12.82
2019-03-04T00:05:22.077Z,12.78
2019-03-04T00:06:22.097Z,12.86
2019-03-04T00:07:22.097Z,12.83
2019-03-04T00:08:22.160Z,12.79
2019-03-04T00:09:22.170Z,12.86
2019-03-04T00:10:22.265Z,12.79
2019-03-04T00:11:22.155Z,12.90
2019-03-04T00:12:22.163Z,12.86
2019-03-04T00:13:22.372Z,12.92
2019-03-04T00:14:22.199Z,12.90
2019-03-04T00:15:22.199Z,12.79
2019-03-04T00:16:22.213Z,12.90
2019-03-04T00:17:22.231Z,12.87
2019-03-04T00:18:22.253Z,12.92
2019-03-04T00:19:22.262Z,12.83
2019-03-04T00:20:22.265Z,12.90
2019-03-04T00:21:22.285Z,12.86
2019-03-04T00:22:22.301Z,12.87
2019-03-04T00:23:22.306Z,12.85
2019-03-04T00:24:22.322Z,12.86
2019-03-04T00:25:22.334Z,12.87
2019-03-04T00:26:22.351Z,12.82
2019-03-04T00:27:22.363Z,12.85
2019-03-04T00:28:22.380Z,12.87
2019-03-04T00:29:22.390Z,12.82
2019-03-04T00:30:22.407Z,12.95
2019-03-04T00:31:22.424Z,12.92
2019-03-04T00:32:22.427Z,12.95
2019-03-04T00:33:22.440Z,13.01
2019-03-04T00:34:22.451Z,12.85
2019-03-04T00:35:22.476Z,12.87
2019-03-04T00:36:22.481Z,12.95
2019-03-04T00:37:22.494Z,12.95
2019-03-04T00:38:22.509Z,12.95
2019-03-04T00:39:22.526Z,13.01
2019-03-04T00:40:22.535Z,12.89
2019-03-04T00:41:22.545Z,12.93
2019-03-04T00:42:22.561Z,12.95
2019-03-04T00:43:22.576Z,13.01
2019-03-04T00:44:22.612Z,12.92
2019-03-04T00:45:22.646Z,13.01
2019-03-04T00:46:22.626Z,13.00
2019-03-04T00:47:22.639Z,13.04
2019-03-04T00:48:22.640Z,13.00
2019-03-04T00:49:22.694Z,13.07
2019-03-04T00:50:22.674Z,13.03
2019-03-04T00:51:22.679Z,13.00
2019-03-04T00:52:22.691Z,13.03
2019-03-04T00:53:22.705Z,13.07
2019-03-04T00:54:22.723Z,13.05
2019-03-04T00:55:22.738Z,13.04
2019-03-04T00:56:22.748Z,13.07
2019-03-04T00:57:22.766Z,13.07
2019-03-04T00:58:22.774Z,13.07
2019-03-04T00:59:22.797Z,13.03
2019-03-04T01:00:22.802Z,13.04
2019-03-04T01:01:22.817Z,13.01
2019-03-04T01:02:22.824Z,13.04
2019-03-04T01:03:22.859Z,13.04
2019-03-04T01:04:22.851Z,13.04
2019-03-04T01:05:22.861Z,12.97
2019-03-04T01:06:22.879Z,13.00
2019-03-04T01:07:22.891Z,13.05
2019-03-04T01:08:22.906Z,12.92
2019-03-04T01:09:22.917Z,12.96
2019-03-04T01:10:22.939Z,13.01
2019-03-04T01:11:22.944Z,13.04
2019-03-04T01:12:22.954Z,12.96
2019-03-04T01:13:22.966Z,12.93
2019-03-04T01:14:22.983Z,12.95
2019-03-04T01:15:22.999Z,12.86
2019-03-04T01:16:23.026Z,12.86
2019-03-04T01:17:23.029Z,12.92
2019-03-04T01:18:23.038Z,12.87
2019-03-04T01:19:23.055Z,12.87
2019-03-04T01:20:23.070Z,12.87
2019-03-04T01:21:23.095Z,12.92
2019-03-04T01:22:23.091Z,12.87
2019-03-04T01:23:23.101Z,12.90
2019-03-04T01:24:23.116Z,12.87
2019-03-04T01:25:23.127Z,12.85
2019-03-04T01:26:23.141Z,12.83
2019-03-04T01:27:23.166Z,12.89
2019-03-04T01:28:23.169Z,12.83
2019-03-04T01:29:23.188Z,12.92
2019-03-04T01:30:23.195Z,12.86
2019-03-04T01:31:23.209Z,12.82
2019-03-04T01:32:23.222Z,12.86
2019-03-04T01:33:23.238Z,12.87
2019-03-04T01:34:23.254Z,12.92
2019-03-04T01:35:23.264Z,12.89
2019-03-04T01:36:23.272Z,12.87
2019-03-04T01:37:23.294Z,12.86
2019-03-04T01:38:23.313Z,12.87
2019-03-04T01:39:23.413Z,12.90
2019-03-04T01:40:23.342Z,12.86
2019-03-04T01:41:23.375Z,12.78
2019-03-04T01:42:23.363Z,12.87
2019-03-04T01:43:23.366Z,12.89
2019-03-04T01:44:23.377Z,12.92
2019-03-04T01:45:23.397Z,12.92
2019-03-04T01:46:23.409Z,12.87
2019-03-04T01:47:23.414Z,12.87
2019-03-04T01:48:23.440Z,12.90
2019-03-04T01:49:23.450Z,12.89
2019-03-04T01:50:23.457Z,12.87
2019-03-04T01:51:23.473Z,12.96
2019-03-04T01:52:23.495Z,12.87
2019-03-04T01:54:23.907Z,12.92
2019-03-04T01:55:24.101Z,12.87
2019-03-04T01:56:23.547Z,12.86
2019-03-04T01:57:23.552Z,12.90
2019-03-04T01:58:23.576Z,12.87
2019-03-04T01:59:23.593Z,12.82
2019-03-04T02:00:23.590Z,12.87
2019-03-04T02:01:23.607Z,12.86
2019-03-04T02:02:23.618Z,12.90
2019-03-04T02:03:23.629Z,12.86
2019-03-04T02:04:23.642Z,12.89
2019-03-04T02:05:23.655Z,12.89
2019-03-04T02:06:23.669Z,12.89
2019-03-04T02:07:23.688Z,12.87
2019-03-04T02:08:23.699Z,12.86
2019-03-04T02:09:23.710Z,12.87
2019-03-04T02:10:23.723Z,12.86
2019-03-04T02:11:23.736Z,12.90
2019-03-04T02:12:23.748Z,12.86
2019-03-04T02:13:23.766Z,12.86
2019-03-04T02:14:23.782Z,12.87
2019-03-04T02:15:23.802Z,12.93
2019-03-04T02:16:23.830Z,12.96
2019-03-04T02:17:23.819Z,12.86
2019-03-04T02:18:23.835Z,12.82
2019-03-04T02:19:23.842Z,12.87
2019-03-04T02:20:23.873Z,12.83
2019-03-04T02:21:23.869Z,12.83
2019-03-04T02:22:23.888Z,12.79
2019-03-04T02:23:23.898Z,12.87
2019-03-04T02:24:23.966Z,12.82
2019-03-04T02:25:24.223Z,12.77
2019-03-04T02:26:23.973Z,12.87
2019-03-04T02:27:23.954Z,12.85
2019-03-04T02:28:23.963Z,12.87
2019-03-04T02:29:23.978Z,12.83
2019-03-04T02:30:23.992Z,12.85
2019-03-04T02:31:24.024Z,12.92
2019-03-04T02:32:24.014Z,12.82
2019-03-04T02:33:24.036Z,12.78
2019-03-04T02:34:24.042Z,12.79
2019-03-04T02:35:24.066Z,12.77
2019-03-04T02:36:24.083Z,12.86
2019-03-04T02:37:24.080Z,12.78
2019-03-04T02:38:24.101Z,12.85
2019-03-04T02:39:24.109Z,12.87
2019-03-04T02:40:24.121Z,12.87
2019-03-04T02:41:24.133Z,13.00
2019-03-04T02:42:24.154Z,13.00
2019-03-04T02:43:24.165Z,12.85
2019-03-04T02:44:24.179Z,12.87
2019-03-04T02:45:24.190Z,12.89
2019-03-04T02:46:24.206Z,12.87
2019-03-04T02:47:24.220Z,12.96
2019-03-04T02:48:24.230Z,12.90
2019-03-04T02:49:24.236Z,12.93
2019-03-04T02:50:24.259Z,13.04
2019-03-04T02:51:24.271Z,12.95
2019-03-04T02:52:24.287Z,12.96
2019-03-04T02:53:24.292Z,13.01
2019-03-04T02:54:24.309Z,13.05
2019-03-04T02:55:24.321Z,13.05
2019-03-04T02:56:24.344Z,13.03
2019-03-04T02:57:24.378Z,13.10
2019-03-04T02:58:24.377Z,13.03
2019-03-04T02:59:24.461Z,13.01
2019-03-04T03:00:24.409Z,13.05
2019-03-04T03:01:24.406Z,13.04
2019-03-04T03:02:24.417Z,13.05
2019-03-04T03:03:24.421Z,13.04
2019-03-04T03:04:24.439Z,13.04
2019-03-04T03:05:24.468Z,13.07
2019-03-04T03:06:24.476Z,13.04
2019-03-04T03:07:24.476Z,13.07
2019-03-04T03:08:24.490Z,13.07
2019-03-04T03:09:24.517Z,13.01
2019-03-04T03:10:24.526Z,13.04
2019-03-04T03:11:24.530Z,13.08
2019-03-04T03:12:24.541Z,13.04
2019-03-04T03:13:24.553Z,13.03
2019-03-04T03:14:24.627Z,12.95
2019-03-04T03:15:24.590Z,12.95
2019-03-04T03:16:24.609Z,13.00
2019-03-04T03:17:24.618Z,12.89
2019-03-04T03:19:24.654Z,13.00
2019-03-04T03:20:24.646Z,13.00
2019-03-04T03:21:24.664Z,12.92
2019-03-04T03:22:24.681Z,12.95
2019-03-04T03:23:24.692Z,12.86
2019-03-04T03:24:24.704Z,12.93
2019-03-04T03:25:24.714Z,12.87
2019-03-04T03:26:24.727Z,12.87
2019-03-04T03:27:24.736Z,12.86
2019-03-04T03:28:24.754Z,12.90
2019-03-04T03:29:24.763Z,12.90
2019-03-04T03:30:24.814Z,12.87
2019-03-04T03:31:24.822Z,12.87
2019-03-04T03:32:24.831Z,12.86
2019-03-04T03:33:24.827Z,12.89
2019-03-04T03:34:24.835Z,12.86
2019-03-04T03:35:24.842Z,12.87
2019-03-04T03:36:24.861Z,12.90
2019-03-04T03:37:24.884Z,12.89
2019-03-04T03:38:24.884Z,12.86
2019-03-04T03:39:24.903Z,12.87
2019-03-04T03:40:24.919Z,12.86
2019-03-04T03:41:24.925Z,12.83
2019-03-04T03:42:24.963Z,12.86
2019-03-04T03:43:24.964Z,12.79
2019-03-04T03:44:24.982Z,12.87
2019-03-04T03:45:24.989Z,12.83
2019-03-04T03:46:24.991Z,12.77
2019-03-04T03:47:25.006Z,12.75
2019-03-04T03:48:25.030Z,12.82
2019-03-04T03:49:25.032Z,12.75
2019-03-04T03:50:25.048Z,12.75
2019-03-04T03:51:25.057Z,12.79
2019-03-04T03:52:25.081Z,12.77
2019-03-04T03:53:25.092Z,12.79
2019-03-04T03:54:25.094Z,12.74
2019-03-04T03:55:25.113Z,12.77
2019-03-04T03:56:25.143Z,12.74
2019-03-04T03:57:25.142Z,12.78
2019-03-04T03:58:25.593Z,12.72
2019-03-04T03:59:25.265Z,12.77
2019-03-04T04:00:25.173Z,12.77
2019-03-04T04:01:25.259Z,12.74
2019-03-04T04:02:25.242Z,12.77
2019-03-04T04:03:25.215Z,12.72
2019-03-04T04:04:25.238Z,12.68
2019-03-04T04:05:25.239Z,12.74
2019-03-04T04:06:25.266Z,12.74
2019-03-04T04:07:25.271Z,12.75
2019-03-04T04:08:25.283Z,12.78
2019-03-04T04:09:25.291Z,12.78
2019-03-04T04:10:25.320Z,12.74
2019-03-04T04:11:25.326Z,12.64
2019-03-04T04:12:25.331Z,12.68
2019-03-04T04:13:25.350Z,12.68
2019-03-04T04:14:25.365Z,12.62
2019-03-04T04:15:25.389Z,12.64
2019-03-04T04:16:25.388Z,12.60
2019-03-04T04:17:25.401Z,12.68
2019-03-04T04:18:25.412Z,12.68
2019-03-04T04:19:25.442Z,12.72
2019-03-04T04:20:25.460Z,12.68
2019-03-04T04:21:25.473Z,12.74
2019-03-04T04:22:25.468Z,12.75
2019-03-04T04:23:25.481Z,12.72
2019-03-04T04:24:25.541Z,12.75
2019-03-04T04:25:25.508Z,12.72
2019-03-04T04:26:25.519Z,12.74
2019-03-04T04:27:25.535Z,12.74
2019-03-04T04:28:25.654Z,12.77
2019-03-04T04:29:25.561Z,12.78
2019-03-04T04:30:25.573Z,12.77
2019-03-04T04:31:25.778Z,12.75
2019-03-04T04:32:25.601Z,12.75
2019-03-04T04:33:25.626Z,12.77
2019-03-04T04:34:25.622Z,12.77
2019-03-04T04:35:25.642Z,12.85
2019-03-04T04:36:25.655Z,12.86
2019-03-04T04:37:25.669Z,12.83
2019-03-04T04:38:25.684Z,12.79
2019-03-04T04:39:25.695Z,12.85
2019-03-04T04:40:25.701Z,12.82
2019-03-04T04:41:25.715Z,12.96
2019-03-04T04:42:25.728Z,12.85
2019-03-04T04:43:25.741Z,13.05
2019-03-04T04:44:25.760Z,13.00
2019-03-04T04:45:25.807Z,12.96
2019-03-04T04:46:25.781Z,13.08
2019-03-04T04:47:25.801Z,13.01
2019-03-04T04:48:25.812Z,13.04
2019-03-04T04:49:25.815Z,13.07
2019-03-04T04:50:25.828Z,13.04
2019-03-04T04:51:25.851Z,13.12
2019-03-04T04:52:25.858Z,13.20
2019-03-04T04:53:25.870Z,13.22
2019-03-04T04:54:25.891Z,13.22
2019-03-04T04:55:25.893Z,13.23
2019-03-04T04:56:25.907Z,13.23
2019-03-04T04:57:25.916Z,13.30
2019-03-04T04:58:25.931Z,13.26
2019-03-04T04:59:25.945Z,13.30
2019-03-04T05:00:25.961Z,13.36
2019-03-04T05:01:25.967Z,13.39
2019-03-04T05:02:25.985Z,13.28
2019-03-04T05:03:25.999Z,13.39
2019-03-04T05:04:26.047Z,13.46
2019-03-04T05:05:26.053Z,13.51
2019-03-04T05:06:26.038Z,13.49
2019-03-04T05:07:26.048Z,13.51
2019-03-04T05:08:26.066Z,13.54
2019-03-04T05:09:26.075Z,13.51
2019-03-04T05:10:26.095Z,13.49
2019-03-04T05:11:26.109Z,13.46
2019-03-04T05:12:26.122Z,13.51
2019-03-04T05:13:26.131Z,13.52
2019-03-04T05:14:26.142Z,13.51
2019-03-04T05:15:26.156Z,13.52
2019-03-04T05:16:26.168Z,13.49
2019-03-04T05:17:26.185Z,13.66
2019-03-04T05:18:26.196Z,13.46
2019-03-04T05:19:26.214Z,13.48
2019-03-04T05:20:26.225Z,13.49
2019-03-04T05:21:26.235Z,13.60
2019-03-04T05:22:26.249Z,13.62
2019-03-04T05:23:26.262Z,13.57
2019-03-04T05:24:26.273Z,13.54
2019-03-04T05:25:26.288Z,13.55
2019-03-04T05:26:26.299Z,13.59
2019-03-04T05:27:26.315Z,13.66
2019-03-04T05:28:26.328Z,13.60
2019-03-04T05:29:26.341Z,13.63
2019-03-04T05:30:26.363Z,13.75
2019-03-04T05:31:26.373Z,13.63
2019-03-04T05:32:26.421Z,13.55
2019-03-04T05:33:26.398Z,13.64
2019-03-04T05:34:26.427Z,13.60
2019-03-04T05:35:26.424Z,13.63
2019-03-04T05:36:26.434Z,13.66
2019-03-04T05:37:26.460Z,13.62
2019-03-04T05:38:26.491Z,13.69
2019-03-04T05:39:26.476Z,13.71
2019-03-04T05:40:26.484Z,13.70
2019-03-04T05:41:26.499Z,13.54
2019-03-04T05:42:26.511Z,13.64
2019-03-04T05:43:26.533Z,13.71
2019-03-04T05:44:26.539Z,13.73
2019-03-04T05:45:26.550Z,13.73
2019-03-04T05:46:26.576Z,13.78
2019-03-04T05:47:26.589Z,13.79
2019-03-04T05:48:26.592Z,13.79
2019-03-04T05:49:26.617Z,13.77
2019-03-04T05:50:26.618Z,13.71
2019-03-04T05:51:26.633Z,13.69
2019-03-04T05:52:28.087Z,13.77
2019-03-04T05:53:26.657Z,13.78
2019-03-04T05:54:26.673Z,13.85
2019-03-04T05:55:26.691Z,13.82
2019-03-04T05:56:26.699Z,13.85
2019-03-04T05:57:26.717Z,13.82
2019-03-04T05:58:26.733Z,13.89
2019-03-04T05:59:26.737Z,13.84
2019-03-04T06:00:26.751Z,13.79
2019-03-04T06:01:26.771Z,13.82
2019-03-04T06:02:26.787Z,13.78
2019-03-04T06:03:26.791Z,13.84
2019-03-04T06:04:26.806Z,13.81
2019-03-04T06:05:26.839Z,13.79
2019-03-04T06:06:26.834Z,13.84
2019-03-04T06:07:26.931Z,13.85
2019-03-04T06:08:26.864Z,13.85
2019-03-04T06:09:26.885Z,13.88
2019-03-04T06:10:26.899Z,13.88
2019-03-04T06:11:26.898Z,13.91
2019-03-04T06:12:26.914Z,13.85
2019-03-04T06:13:26.936Z,13.88
2019-03-04T06:14:26.949Z,13.91
2019-03-04T06:15:26.951Z,13.91
2019-03-04T06:16:26.967Z,13.85
2019-03-04T06:17:26.979Z,13.81
2019-03-04T06:18:26.989Z,13.81
2019-03-04T06:19:27.008Z,13.75
2019-03-04T06:20:27.015Z,13.77
2019-03-04T06:21:27.034Z,13.78
2019-03-04T06:22:27.153Z,13.79
2019-03-04T06:23:27.067Z,13.81
2019-03-04T06:24:27.076Z,13.75
2019-03-04T06:25:27.090Z,13.81
2019-03-04T06:26:27.101Z,13.71
2019-03-04T06:27:27.109Z,13.60
2019-03-04T06:28:27.157Z,13.51
2019-03-04T06:29:27.139Z,13.29
2019-03-04T06:30:27.153Z,12.83
2019-03-04T06:31:27.177Z,11.55
2019-03-04T06:32:27.179Z,10.61
2019-03-04T06:33:27.213Z,10.20
2019-03-04T06:34:27.210Z,10.07
2019-03-04T06:35:27.222Z,9.91
2019-03-04T06:36:27.233Z,9.99
2019-03-04T06:37:27.243Z,10.04
2019-03-04T06:38:27.266Z,10.09
2019-03-04T06:39:27.331Z,10.18
2019-03-04T06:40:27.286Z,10.14
2019-03-04T06:41:27.297Z,10.20
2019-03-04T06:43:27.342Z,10.29
2019-03-04T06:44:27.363Z,10.30
2019-03-04T06:45:27.346Z,10.29
2019-03-04T06:46:27.357Z,10.44
2019-03-04T06:47:27.390Z,10.42
2019-03-04T06:48:27.401Z,10.32
2019-03-04T06:49:27.407Z,10.42
2019-03-04T06:50:27.404Z,10.45
2019-03-04T06:51:27.414Z,10.44
2019-03-04T06:52:27.433Z,10.38
2019-03-04T06:53:27.445Z,10.42
2019-03-04T06:54:27.467Z,10.30
2019-03-04T06:55:27.460Z,10.29
2019-03-04T06:56:27.478Z,10.29
2019-03-04T06:57:28.564Z,10.23
2019-03-04T06:58:27.508Z,10.27
2019-03-04T06:59:27.568Z,10.20
2019-03-04T07:00:27.519Z,10.25
2019-03-04T07:01:27.536Z,10.20
2019-03-04T07:02:27.549Z,10.27
2019-03-04T07:03:27.959Z,10.20
2019-03-04T07:04:27.581Z,10.18
2019-03-04T07:05:27.581Z,10.20
2019-03-04T07:06:27.606Z,10.20
2019-03-04T07:07:28.405Z,10.08
2019-03-04T07:08:27.641Z,10.05
2019-03-04T07:09:27.635Z,10.02
2019-03-04T07:10:28.313Z,10.02
2019-03-04T07:11:27.660Z,9.99
2019-03-04T07:12:27.667Z,9.96
2019-03-04T07:13:27.678Z,9.93
2019-03-04T07:14:27.705Z,9.91
2019-03-04T07:15:27.756Z,9.94
2019-03-04T07:16:27.791Z,9.94
2019-03-04T07:17:27.752Z,9.90
2019-03-04T07:18:27.794Z,9.90
2019-03-04T07:19:27.792Z,10.01
2019-03-04T07:20:27.761Z,9.87
2019-03-04T07:21:27.776Z,9.97
2019-03-04T07:22:27.792Z,9.89
2019-03-04T07:23:27.802Z,9.87
2019-03-04T07:24:27.805Z,9.79
2019-03-04T07:25:27.882Z,9.79
2019-03-04T07:26:27.831Z,9.75
2019-03-04T07:27:27.886Z,9.83
2019-03-04T07:28:27.869Z,9.66
2019-03-04T07:29:27.895Z,9.78
2019-03-04T07:30:27.892Z,9.78
2019-03-04T07:31:27.891Z,9.76
2019-03-04T07:32:27.909Z,9.94
2019-03-04T07:33:27.930Z,9.91
2019-03-04T07:34:28.654Z,9.99
2019-03-04T07:35:27.943Z,9.96
2019-03-04T07:36:27.954Z,9.94
2019-03-04T07:37:27.963Z,9.91
2019-03-04T07:38:27.986Z,9.90
2019-03-04T07:39:27.992Z,9.89
2019-03-04T07:40:28.016Z,9.91
2019-03-04T07:41:28.011Z,9.91
2019-03-04T07:42:28.022Z,9.89
2019-03-04T07:43:28.032Z,9.84
2019-03-04T07:44:28.048Z,9.79
2019-03-04T07:45:28.057Z,9.79
2019-03-04T07:46:28.152Z,9.75
2019-03-04T07:47:28.331Z,9.75
2019-03-04T07:48:28.095Z,9.74
2019-03-04T07:49:28.211Z,9.69
2019-03-04T07:50:28.259Z,9.69
2019-03-04T07:52:28.146Z,9.64
2019-03-04T07:53:28.156Z,9.65
2019-03-04T07:54:28.248Z,9.65
2019-03-04T07:55:28.177Z,9.60
2019-03-04T07:56:28.237Z,9.57
2019-03-04T07:57:28.207Z,9.65
2019-03-04T07:58:28.442Z,9.66
2019-03-04T07:59:28.230Z,9.86
2019-03-04T08:00:28.244Z,9.91
2019-03-04T08:01:28.309Z,9.91
2019-03-04T08:02:28.351Z,10.07
2019-03-04T08:03:28.291Z,10.02
2019-03-04T08:04:28.299Z,10.08
2019-03-04T08:05:28.664Z,10.01
2019-03-04T08:07:28.455Z,10.05
2019-03-04T08:08:28.448Z,10.14
2019-03-04T08:09:28.588Z,10.09
2019-03-04T08:10:28.416Z,10.18
2019-03-04T08:11:28.412Z,10.27
2019-03-04T08:12:28.395Z,10.25
2019-03-04T08:13:28.403Z,10.36
2019-03-04T08:15:28.437Z,10.52
2019-03-04T08:16:28.438Z,10.64
2019-03-04T08:17:28.538Z,10.52
2019-03-04T08:18:28.482Z,10.52
2019-03-04T08:19:28.810Z,10.59
2019-03-04T08:20:28.486Z,10.47
2019-03-04T08:21:28.558Z,10.61
2019-03-04T08:22:29.058Z,10.48
2019-03-04T08:23:28.594Z,10.56
2019-03-04T08:24:28.545Z,10.44
2019-03-04T08:25:29.171Z,10.45
2019-03-04T08:26:28.893Z,10.47
2019-03-04T08:27:28.832Z,10.44
2019-03-04T08:28:28.672Z,10.44
2019-03-04T08:29:28.617Z,10.34
2019-03-04T08:30:28.624Z,10.09
2019-03-04T08:31:29.351Z,9.57
2019-03-04T08:32:29.633Z,9.33
2019-03-04T08:34:31.345Z,9.04
2019-03-04T08:35:28.671Z,8.98
2019-03-04T08:36:28.685Z,8.86
2019-03-04T08:37:28.723Z,8.84
2019-03-04T08:38:28.774Z,8.86
2019-03-04T08:39:28.731Z,8.84
2019-03-04T08:40:28.736Z,8.76
2019-03-04T08:41:28.768Z,8.62
2019-03-04T08:42:29.035Z,8.76
2019-03-04T08:44:30.994Z,8.73
2019-03-04T08:45:28.792Z,8.76
2019-03-04T08:46:28.799Z,8.80
2019-03-04T08:47:28.901Z,8.84
2019-03-04T08:48:28.868Z,8.86
2019-03-04T08:49:28.870Z,8.87
2019-03-04T08:50:28.846Z,8.99
2019-03-04T08:51:29.006Z,9.05
2019-03-04T08:52:29.385Z,9.14
2019-03-04T08:53:30.953Z,9.08
2019-03-04T08:55:28.898Z,9.18
2019-03-04T08:56:28.913Z,9.24
2019-03-04T08:57:28.926Z,9.21
2019-03-04T08:58:29.010Z,9.26
2019-03-04T08:59:28.964Z,9.31
2019-03-04T09:00:28.960Z,9.29
2019-03-04T09:01:31.145Z,9.39
2019-03-04T09:02:28.984Z,9.40
2019-03-04T09:03:28.992Z,9.57
2019-03-04T09:04:29.427Z,9.56
2019-03-04T09:05:29.033Z,9.65
2019-03-04T09:06:29.034Z,9.83
2019-03-04T09:07:29.065Z,10.01
2019-03-04T09:08:29.091Z,10.04
2019-03-04T09:09:29.068Z,10.17
2019-03-04T09:10:29.089Z,10.40
2019-03-04T09:11:29.091Z,10.38
2019-03-04T09:12:29.105Z,10.59
2019-03-04T09:13:29.185Z,10.59
2019-03-04T09:14:29.155Z,10.68
2019-03-04T09:15:29.165Z,10.82
2019-03-04T09:16:29.178Z,10.82
2019-03-04T09:17:29.163Z,10.92
2019-03-04T09:18:29.188Z,10.89
2019-03-04T09:19:29.992Z,11.00
2019-03-04T09:20:29.275Z,10.97
2019-03-04T09:21:29.263Z,11.00
2019-03-04T09:22:29.237Z,10.96
2019-03-04T09:23:29.241Z,11.00
2019-03-04T09:24:29.303Z,10.99
2019-03-04T09:25:30.687Z,11.00
2019-03-04T09:26:29.289Z,11.00
2019-03-04T09:27:29.288Z,11.04
2019-03-04T09:28:29.303Z,11.00
2019-03-04T09:29:29.324Z,11.06
2019-03-04T09:30:29.681Z,11.07
2019-03-04T09:31:30.562Z,11.00
2019-03-04T09:32:29.900Z,11.04
2019-03-04T09:33:29.504Z,11.04
2019-03-04T09:34:29.377Z,10.99
2019-03-04T09:35:29.392Z,11.03
2019-03-04T09:36:29.466Z,11.06
2019-03-04T09:37:29.411Z,11.03
2019-03-04T09:38:29.911Z,11.11
2019-03-04T09:39:29.473Z,11.07
2019-03-04T09:40:29.509Z,11.11
2019-03-04T09:41:29.619Z,11.06
2019-03-04T09:42:29.479Z,11.10
2019-03-04T09:43:29.597Z,11.09
2019-03-04T09:44:29.497Z,11.09
2019-03-04T09:45:38.363Z,11.10
2019-03-04T09:46:29.574Z,11.09
2019-03-04T09:47:29.537Z,11.09
2019-03-04T09:48:29.573Z,11.21
2019-03-04T09:49:29.560Z,11.21
2019-03-04T09:50:29.580Z,11.18
2019-03-04T09:51:29.595Z,11.15
2019-03-04T09:52:29.599Z,11.11
2019-03-04T09:53:38.870Z,11.07
2019-03-04T09:54:29.636Z,11.21
2019-03-04T09:55:29.642Z,11.27
2019-03-04T09:56:29.738Z,11.28
2019-03-04T09:57:29.742Z,11.24
2019-03-04T09:58:29.673Z,11.14
2019-03-04T09:59:29.689Z,11.17
2019-03-04T10:00:29.707Z,11.15
2019-03-04T10:01:29.713Z,11.21
2019-03-04T10:02:29.727Z,11.03
2019-03-04T10:03:29.750Z,11.03
2019-03-04T10:04:29.765Z,11.00
2019-03-04T10:05:31.691Z,11.00
2019-03-04T10:06:29.871Z,11.00
2019-03-04T10:07:29.789Z,10.92
2019-03-04T10:08:32.849Z,10.89
2019-03-04T10:10:29.843Z,10.73
2019-03-04T10:11:29.846Z,10.67
2019-03-04T10:12:30.705Z,10.63
2019-03-04T10:13:29.882Z,10.59
2019-03-04T10:14:29.877Z,10.64
2019-03-04T10:15:29.891Z,10.52
2019-03-04T10:16:29.903Z,10.44
2019-03-04T10:17:29.929Z,10.44
2019-03-04T10:18:30.014Z,10.32
2019-03-04T10:19:29.993Z,10.25
2019-03-04T10:20:29.965Z,10.25
2019-03-04T10:21:29.963Z,10.14
2019-03-04T10:22:29.990Z,10.17
2019-03-04T10:23:30.000Z,10.18
2019-03-04T10:24:29.999Z,10.15
2019-03-04T10:25:30.014Z,10.15
2019-03-04T10:26:30.037Z,10.18
2019-03-04T10:27:30.167Z,10.11
2019-03-04T10:28:30.053Z,10.20
2019-03-04T10:29:30.102Z,10.20
2019-03-04T10:30:30.949Z,10.11
2019-03-04T10:31:30.096Z,10.15
2019-03-04T10:32:30.098Z,10.15
2019-03-04T10:33:30.112Z,10.25
2019-03-04T10:34:32.012Z,10.26
2019-03-04T10:35:30.688Z,10.29
2019-03-04T10:36:30.154Z,10.29
2019-03-04T10:37:30.174Z,10.25
2019-03-04T10:38:30.304Z,10.33
2019-03-04T10:39:30.194Z,10.47
2019-03-04T10:40:30.641Z,10.44
2019-03-04T10:41:30.374Z,10.53
2019-03-04T10:42:30.239Z,10.47
2019-03-04T10:43:30.287Z,10.52
2019-03-04T10:44:30.260Z,10.51
2019-03-04T10:45:30.259Z,10.55
2019-03-04T10:46:30.300Z,10.59
2019-03-04T10:47:30.305Z,10.70
2019-03-04T10:48:30.299Z,10.60
2019-03-04T10:49:30.311Z,10.63
2019-03-04T10:50:32.000Z,10.56
2019-03-04T10:52:30.350Z,10.59
2019-03-04T10:53:31.374Z,10.61
2019-03-04T10:54:31.045Z,10.74
2019-03-04T10:55:30.463Z,10.81
2019-03-04T10:56:30.550Z,10.81
2019-03-04T10:57:30.565Z,10.82
2019-03-04T10:58:30.453Z,10.91
2019-03-04T10:59:30.470Z,10.91
2019-03-04T11:00:30.466Z,10.91
2019-03-04T11:01:30.836Z,10.82
2019-03-04T11:02:30.502Z,10.70
2019-03-04T11:03:30.505Z,10.79
2019-03-04T11:04:30.523Z,10.60
2019-03-04T11:05:30.515Z,10.56
2019-03-04T11:06:30.537Z,10.61
2019-03-04T11:07:30.553Z,10.47
2019-03-04T11:08:30.569Z,10.47
2019-03-04T11:09:30.561Z,10.47
2019-03-04T11:10:30.578Z,10.25
2019-03-04T11:11:30.687Z,10.08
2019-03-04T11:12:30.597Z,10.15
2019-03-04T11:13:30.644Z,10.02
2019-03-04T11:14:30.627Z,9.78
2019-03-04T11:15:30.640Z,9.65
2019-03-04T11:16:30.657Z,8.79
2019-03-04T11:17:30.685Z,8.22
2019-03-04T11:18:30.765Z,7.98
2019-03-04T11:19:30.707Z,7.63
2019-03-04T11:20:30.731Z,7.46
2019-03-04T11:21:30.708Z,7.39
2019-03-04T11:22:30.734Z,7.32
2019-03-04T11:23:30.745Z,7.32
2019-03-04T11:24:30.746Z,7.31
2019-03-04T11:25:30.773Z,7.30
2019-03-04T11:27:30.778Z,7.24
2019-03-04T11:28:30.836Z,7.25
2019-03-04T11:29:30.936Z,7.32
2019-03-04T11:30:30.980Z,7.45
2019-03-04T11:31:30.963Z,7.42
2019-03-04T11:32:30.963Z,7.39
2019-03-04T11:33:30.943Z,7.32
2019-03-04T11:34:30.927Z,7.10
2019-03-04T11:35:30.942Z,7.10
2019-03-04T11:36:31.036Z,7.09
2019-03-04T11:37:32.864Z,7.15
2019-03-04T11:38:31.132Z,7.20
2019-03-04T11:39:30.937Z,7.31
2019-03-04T11:40:30.979Z,7.35
2019-03-04T11:41:31.034Z,7.31
2019-03-04T11:42:30.944Z,7.34
2019-03-04T11:43:30.960Z,7.48
2019-03-04T11:44:31.958Z,7.45
2019-03-04T11:45:31.025Z,7.45
2019-03-04T11:46:31.039Z,7.57
2019-03-04T11:47:31.023Z,7.45
2019-03-04T11:48:31.118Z,7.45
2019-03-04T11:49:31.166Z,7.52
2019-03-04T11:50:31.130Z,7.60
2019-03-04T11:51:31.158Z,7.60
2019-03-04T11:52:31.065Z,7.63
2019-03-04T11:53:31.077Z,7.61
2019-03-04T11:54:31.082Z,7.61
2019-03-04T11:55:31.096Z,7.63
2019-03-04T11:56:31.093Z,7.87
2019-03-04T11:57:31.307Z,7.89
2019-03-04T11:59:31.159Z,7.90
2019-03-04T12:00:31.146Z,7.90
2019-03-04T12:01:31.147Z,7.90
2019-03-04T12:02:38.538Z,7.87
2019-03-04T12:03:31.251Z,7.79
2019-03-04T12:04:31.459Z,7.77
2019-03-04T12:05:31.200Z,7.89
2019-03-04T12:06:31.250Z,7.98
2019-03-04T12:07:31.220Z,8.00
2019-03-04T12:08:31.263Z,8.12
2019-03-04T12:09:31.297Z,8.20
2019-03-04T12:10:31.436Z,8.30
2019-03-04T12:11:37.945Z,8.33
2019-03-04T12:12:31.499Z,8.41
2019-03-04T12:13:31.286Z,8.40
2019-03-04T12:14:31.314Z,8.36
2019-03-04T12:15:31.324Z,8.28
2019-03-04T12:16:31.320Z,8.29
2019-03-04T12:17:31.346Z,8.40
2019-03-04T12:18:31.357Z,8.36
2019-03-04T12:19:31.368Z,8.62
2019-03-04T12:20:31.368Z,8.53
2019-03-04T12:21:31.591Z,8.52
2019-03-04T12:22:31.400Z,8.38
2019-03-04T12:23:31.443Z,8.28
2019-03-04T12:24:31.429Z,8.23
2019-03-04T12:25:31.427Z,8.34
2019-03-04T12:26:31.463Z,8.18
2019-03-04T12:27:31.505Z,8.20
2019-03-04T12:28:31.700Z,8.20
2019-03-04T12:29:31.477Z,8.30
2019-03-04T12:30:31.522Z,8.38
2019-03-04T12:31:31.515Z,8.44
2019-03-04T12:32:31.518Z,8.37
2019-03-04T12:33:31.536Z,8.48
2019-03-04T12:34:31.754Z,8.45
2019-03-04T12:35:32.007Z,8.48
2019-03-04T12:36:31.576Z,8.45
2019-03-04T12:37:31.646Z,8.45
2019-03-04T12:38:31.600Z,8.45
2019-03-04T12:39:31.602Z,8.53
2019-03-04T12:40:31.617Z,8.53
2019-03-04T12:41:31.629Z,8.50
2019-03-04T12:42:31.694Z,8.62
2019-03-04T12:43:31.663Z,8.63
2019-03-04T12:44:31.715Z,8.70
2019-03-04T12:45:34.692Z,8.65
2019-03-04T12:46:31.680Z,8.68
2019-03-04T12:47:31.696Z,8.77
2019-03-04T12:48:31.710Z,8.71
2019-03-04T12:49:31.730Z,8.73
2019-03-04T12:50:31.754Z,8.81
2019-03-04T12:51:31.739Z,8.84
2019-03-04T12:52:31.745Z,8.83
2019-03-04T12:53:37.367Z,8.79
2019-03-04T12:54:31.769Z,8.76
2019-03-04T12:55:31.800Z,8.81
2019-03-04T12:56:31.796Z,8.80
2019-03-04T12:57:31.824Z,8.81
2019-03-04T12:58:31.824Z,8.92
2019-03-04T12:59:31.835Z,8.84
2019-03-04T13:00:31.849Z,8.83
2019-03-04T13:01:31.857Z,8.83
2019-03-04T13:02:31.872Z,8.73
2019-03-04T13:03:31.881Z,8.87
2019-03-04T13:04:31.893Z,8.95
2019-03-04T13:05:31.921Z,9.05
2019-03-04T13:06:31.915Z,9.08
2019-03-04T13:07:31.931Z,8.95
2019-03-04T13:08:31.944Z,9.02
2019-03-04T13:09:31.969Z,9.11
2019-03-04T13:10:31.980Z,9.13
2019-03-04T13:11:31.995Z,9.08
2019-03-04T13:12:32.030Z,9.05